createdAt,value
2022-10-08T00:00:15.154Z,10.71
2022-10-08T00:02:41.791Z,10.69
2022-10-08T00:05:08.841Z,10.60
2022-10-08T00:07:35.620Z,10.70
2022-10-08T00:10:02.602Z,10.72
2022-10-08T00:12:29.220Z,10.72
2022-10-08T00:14:56.005Z,10.71
2022-10-08T00:17:22.677Z,10.66
2022-10-08T00:19:49.307Z,10.80
2022-10-08T00:22:15.946Z,10.74
2022-10-08T00:24:42.579Z,10.65
2022-10-08T00:27:09.226Z,10.67
2022-10-08T00:29:35.881Z,10.65
2022-10-08T00:32:02.559Z,10.57
2022-10-08T00:34:29.933Z,10.69
2022-10-08T00:36:56.621Z,10.68
2022-10-08T00:39:24.653Z,10.73
2022-10-08T00:41:53.784Z,10.35
2022-10-08T00:44:54.916Z,10.65
2022-10-08T00:47:35.291Z,10.67
2022-10-08T00:50:12.881Z,10.59
2022-10-08T00:52:52.848Z,10.52
2022-10-08T00:55:21.436Z,10.60
2022-10-08T00:57:48.252Z,10.52
2022-10-08T01:00:20.136Z,10.61
2022-10-08T01:02:47.128Z,10.60
2022-10-08T01:05:17.230Z,10.39
2022-10-08T01:07:52.181Z,10.57
2022-10-08T01:10:32.179Z,10.33
2022-10-08T01:13:37.865Z,10.46
2022-10-08T01:16:07.565Z,10.60
2022-10-08T01:18:43.602Z,10.57
2022-10-08T01:21:21.905Z,10.49
2022-10-08T01:24:00.540Z,10.53
2022-10-08T01:26:42.771Z,10.42
2022-10-08T01:29:16.588Z,10.49
2022-10-08T01:32:01.822Z,10.42
2022-10-08T01:34:37.195Z,10.34
2022-10-08T01:37:04.973Z,10.20
2022-10-08T01:39:33.558Z,10.30
2022-10-08T01:42:03.094Z,10.45
2022-10-08T01:44:36.862Z,10.39
2022-10-08T01:47:07.066Z,10.25
2022-10-08T01:49:42.022Z,10.17
2022-10-08T01:52:13.030Z,10.02
2022-10-08T01:54:41.285Z,10.19
2022-10-08T01:57:10.409Z,9.85
2022-10-08T01:59:44.124Z,10.26
2022-10-08T02:02:17.067Z,10.26
2022-10-08T02:04:43.811Z,10.25
2022-10-08T02:07:11.273Z,10.18
2022-10-08T02:09:41.543Z,10.16
2022-10-08T02:12:09.269Z,10.14
2022-10-08T02:14:38.665Z,10.12
2022-10-08T02:17:15.125Z,10.13
2022-10-08T02:19:56.009Z,10.13
2022-10-08T02:22:25.866Z,10.18
2022-10-08T02:24:56.293Z,10.20
2022-10-08T02:27:29.905Z,10.27
2022-10-08T02:30:10.286Z,10.18
2022-10-08T02:33:01.437Z,10.13
2022-10-08T02:35:33.407Z,10.00
2022-10-08T02:38:02.852Z,10.03
2022-10-08T02:40:30.593Z,10.10
2022-10-08T02:43:01.691Z,10.18
2022-10-08T02:45:31.348Z,10.26
2022-10-08T02:48:04.610Z,10.30
2022-10-08T02:50:32.406Z,10.35
2022-10-08T02:52:59.779Z,10.37
2022-10-08T02:55:47.199Z,10.44
2022-10-08T02:58:13.974Z,10.40
2022-10-08T03:00:51.647Z,10.31
2022-10-08T03:03:25.846Z,10.32
2022-10-08T03:05:52.898Z,10.25
2022-10-08T03:08:20.554Z,10.30
2022-10-08T03:10:47.539Z,10.28
2022-10-08T03:13:14.488Z,10.33
2022-10-08T03:15:41.553Z,10.37
2022-10-08T03:18:10.557Z,10.41
2022-10-08T03:20:45.778Z,10.36
2022-10-08T03:23:16.035Z,10.34
2022-10-08T03:25:42.691Z,10.39
2022-10-08T03:28:09.609Z,10.45
2022-10-08T03:30:36.317Z,10.34
2022-10-08T03:33:03.021Z,10.46
2022-10-08T03:35:29.747Z,10.54
2022-10-08T03:37:56.406Z,10.62
2022-10-08T03:40:23.053Z,10.64
2022-10-08T03:42:51.236Z,10.55
2022-10-08T03:45:17.878Z,10.52
2022-10-08T03:47:44.489Z,10.51
2022-10-08T03:50:11.219Z,10.52
2022-10-08T03:52:37.936Z,10.62
2022-10-08T03:55:04.987Z,10.61
2022-10-08T03:57:31.624Z,10.71
2022-10-08T03:59:58.266Z,10.63
2022-10-08T04:02:24.990Z,10.73
2022-10-08T04:04:51.765Z,10.75
2022-10-08T04:07:18.421Z,10.68
2022-10-08T04:09:45.093Z,10.74
2022-10-08T04:12:11.742Z,10.68
2022-10-08T04:14:38.353Z,10.70
2022-10-08T04:17:05.048Z,10.73
2022-10-08T04:19:31.691Z,10.72
2022-10-08T04:21:58.315Z,10.67
2022-10-08T04:24:24.962Z,10.71
2022-10-08T04:26:51.634Z,10.71
2022-10-08T04:29:18.302Z,10.67
2022-10-08T04:31:44.987Z,10.65
2022-10-08T04:34:11.842Z,10.57
2022-10-08T04:36:39.061Z,10.63
2022-10-08T04:39:05.676Z,10.56
2022-10-08T04:41:32.322Z,10.59
2022-10-08T04:44:01.233Z,10.60
2022-10-08T04:46:28.543Z,10.49
2022-10-08T04:48:56.461Z,10.53
2022-10-08T04:51:25.207Z,10.64
2022-10-08T04:53:52.762Z,10.69
2022-10-08T04:56:22.258Z,10.67
2022-10-08T04:58:49.270Z,10.71
2022-10-08T05:01:18.071Z,10.79
2022-10-08T05:03:53.202Z,10.59
2022-10-08T05:06:22.301Z,10.52
2022-10-08T05:08:49.289Z,10.47
2022-10-08T05:11:16.727Z,10.41
2022-10-08T05:13:43.450Z,10.43
2022-10-08T05:16:13.508Z,10.54
2022-10-08T05:18:41.730Z,10.59
2022-10-08T05:21:10.894Z,10.67
2022-10-08T05:23:38.708Z,10.67
2022-10-08T05:26:19.764Z,10.75
2022-10-08T05:28:48.186Z,10.80
2022-10-08T05:31:16.133Z,10.74
2022-10-08T05:33:43.150Z,10.64
2022-10-08T05:36:16.153Z,10.60
2022-10-08T05:38:43.846Z,10.58
2022-10-08T05:41:38.170Z,10.58
2022-10-08T05:44:05.655Z,10.54
2022-10-08T05:46:34.700Z,10.54
2022-10-08T05:49:02.492Z,10.41
2022-10-08T05:51:29.519Z,10.44
2022-10-08T05:53:59.605Z,10.50
2022-10-08T05:56:27.732Z,10.52
2022-10-08T05:58:54.623Z,10.51
2022-10-08T06:01:26.640Z,10.62
2022-10-08T06:03:58.785Z,10.67
2022-10-08T06:06:25.765Z,10.52
2022-10-08T06:09:00.869Z,10.66
2022-10-08T06:11:31.898Z,10.71
2022-10-08T06:13:59.910Z,10.79
2022-10-08T06:16:27.159Z,10.80
2022-10-08T06:18:53.887Z,10.77
2022-10-08T06:21:23.171Z,10.65
2022-10-08T06:23:51.945Z,10.94
2022-10-08T06:26:19.370Z,10.92
2022-10-08T06:28:46.309Z,10.93
2022-10-08T06:31:13.070Z,10.93
2022-10-08T06:33:40.262Z,11.03
2022-10-08T06:36:13.426Z,10.99
2022-10-08T06:38:40.331Z,11.08
2022-10-08T06:41:06.998Z,11.02
2022-10-08T06:43:33.869Z,11.13
2022-10-08T06:46:04.759Z,11.19
2022-10-08T06:48:31.994Z,11.20
2022-10-08T06:51:07.377Z,11.26
2022-10-08T06:53:34.758Z,11.15
2022-10-08T06:56:07.153Z,11.29
2022-10-08T06:58:37.763Z,11.22
2022-10-08T07:01:06.113Z,11.34
2022-10-08T07:03:33.190Z,11.30
2022-10-08T07:06:01.479Z,11.37
2022-10-08T07:08:29.100Z,11.47
2022-10-08T07:10:55.899Z,11.47
2022-10-08T07:13:22.583Z,11.60
2022-10-08T07:15:49.379Z,11.55
2022-10-08T07:18:16.304Z,11.65
2022-10-08T07:20:43.337Z,11.73
2022-10-08T07:23:11.215Z,11.80
2022-10-08T07:25:37.833Z,11.78
2022-10-08T07:28:04.540Z,11.78
2022-10-08T07:30:33.071Z,11.89
2022-10-08T07:33:00.397Z,12.05
2022-10-08T07:35:29.226Z,12.05
2022-10-08T07:37:56.462Z,12.21
2022-10-08T07:40:23.126Z,12.13
2022-10-08T07:42:50.157Z,12.31
2022-10-08T07:45:17.942Z,12.36
2022-10-08T07:47:44.688Z,12.38
2022-10-08T07:50:11.355Z,12.41
2022-10-08T07:52:38.017Z,12.63
2022-10-08T07:55:05.173Z,12.70
2022-10-08T07:57:31.813Z,12.83
2022-10-08T07:59:58.507Z,12.71
2022-10-08T08:02:25.423Z,12.68
2022-10-08T08:04:53.139Z,12.97
2022-10-08T08:07:19.764Z,13.02
2022-10-08T08:09:46.588Z,13.00
2022-10-08T08:12:13.605Z,12.86
2022-10-08T08:14:40.238Z,12.82
2022-10-08T08:17:07.001Z,12.89
2022-10-08T08:19:33.675Z,13.19
2022-10-08T08:22:00.340Z,13.32
2022-10-08T08:24:27.004Z,13.40
2022-10-08T08:26:57.568Z,13.38
2022-10-08T08:29:24.463Z,13.38
2022-10-08T08:31:51.230Z,13.25
2022-10-08T08:34:20.969Z,13.56
2022-10-08T08:36:49.401Z,13.66
2022-10-08T08:39:20.946Z,13.76
2022-10-08T08:42:10.230Z,13.83
2022-10-08T08:44:39.943Z,13.81
2022-10-08T08:47:30.882Z,13.90
2022-10-08T08:50:01.197Z,14.02
2022-10-08T08:52:33.950Z,14.07
2022-10-08T08:55:01.175Z,13.97
2022-10-08T08:57:33.989Z,14.13
2022-10-08T09:00:05.707Z,14.10
2022-10-08T09:02:39.126Z,14.08
2022-10-08T09:05:09.276Z,14.23
2022-10-08T09:07:49.609Z,14.23
2022-10-08T09:10:20.460Z,14.32
2022-10-08T09:12:48.069Z,14.34
2022-10-08T09:15:21.553Z,14.41
2022-10-08T09:17:51.905Z,14.39
2022-10-08T09:20:20.630Z,14.44
2022-10-08T09:22:49.696Z,14.20
2022-10-08T09:25:20.550Z,14.04
2022-10-08T09:27:51.147Z,14.19
2022-10-08T09:30:29.478Z,14.25
2022-10-08T09:33:02.693Z,14.40
2022-10-08T09:35:31.886Z,14.33
2022-10-08T09:38:02.172Z,14.42
2022-10-08T09:40:32.213Z,14.56
2022-10-08T09:43:28.246Z,14.70
2022-10-08T09:45:54.894Z,14.62
2022-10-08T09:48:25.503Z,14.75
2022-10-08T09:50:56.357Z,14.99
2022-10-08T09:53:24.317Z,14.69
2022-10-08T09:56:01.173Z,15.11
2022-10-08T09:58:31.652Z,15.21
2022-10-08T10:01:14.116Z,15.32
2022-10-08T10:03:47.773Z,15.45
2022-10-08T10:06:20.384Z,15.43
2022-10-08T10:08:57.369Z,15.57
2022-10-08T10:11:31.907Z,15.60
2022-10-08T10:14:04.139Z,15.78
2022-10-08T10:16:39.651Z,15.49
2022-10-08T10:19:15.680Z,15.60
2022-10-08T10:21:50.213Z,15.78
2022-10-08T10:24:19.674Z,15.84
2022-10-08T10:26:47.369Z,15.91
2022-10-08T10:29:20.865Z,16.10
2022-10-08T10:31:50.954Z,16.18
2022-10-08T10:34:17.591Z,16.27
2022-10-08T10:36:49.874Z,16.24
2022-10-08T10:39:38.837Z,16.27
2022-10-08T10:42:18.588Z,16.49
2022-10-08T10:44:54.274Z,16.66
2022-10-08T10:47:30.958Z,16.71
2022-10-08T10:50:00.613Z,16.95
2022-10-08T10:52:48.339Z,17.08
2022-10-08T10:55:32.937Z,17.13
2022-10-08T10:58:12.172Z,17.19
2022-10-08T11:00:48.062Z,17.29
2022-10-08T11:03:20.510Z,17.35
2022-10-08T11:05:51.174Z,17.32
2022-10-08T11:08:27.292Z,17.37
2022-10-08T11:11:06.618Z,17.32
2022-10-08T11:13:48.013Z,17.48
2022-10-08T11:16:23.888Z,17.61
2022-10-08T11:18:53.614Z,17.47
2022-10-08T11:21:50.845Z,17.65
2022-10-08T11:24:36.363Z,17.68
2022-10-08T11:27:28.614Z,17.66
2022-10-08T11:30:33.779Z,17.92
2022-10-08T11:33:00.650Z,18.06
2022-10-08T11:35:36.261Z,18.11
2022-10-08T11:38:13.928Z,18.21
2022-10-08T11:40:40.498Z,18.06
2022-10-08T11:43:17.097Z,17.90
2022-10-08T11:45:46.211Z,18.02
2022-10-08T11:48:34.326Z,18.26
2022-10-08T11:51:18.992Z,18.40
2022-10-08T11:54:00.818Z,18.45
2022-10-08T11:56:27.614Z,18.54
2022-10-08T11:58:56.887Z,18.61
2022-10-08T12:01:23.843Z,18.59
2022-10-08T12:04:01.134Z,18.73
2022-10-08T12:06:30.168Z,18.50
2022-10-08T12:09:05.229Z,18.50
2022-10-08T12:11:31.837Z,18.49
2022-10-08T12:14:14.510Z,18.55
2022-10-08T12:16:59.084Z,18.60
2022-10-08T12:19:34.595Z,18.71
2022-10-08T12:22:10.900Z,18.47
2022-10-08T12:24:37.504Z,18.64
2022-10-08T12:27:25.511Z,18.55
2022-10-08T12:29:55.080Z,18.49
2022-10-08T12:32:43.859Z,18.64
2022-10-08T12:35:24.107Z,18.57
2022-10-08T12:38:09.430Z,18.25
2022-10-08T12:40:53.643Z,18.18
2022-10-08T12:43:36.407Z,18.13
2022-10-08T12:46:11.150Z,18.10
2022-10-08T12:49:02.151Z,18.21
2022-10-08T12:51:44.116Z,18.28
2022-10-08T12:54:25.085Z,18.57
2022-10-08T12:56:52.798Z,18.78
2022-10-08T12:59:24.764Z,18.79
2022-10-08T13:01:53.774Z,18.83
2022-10-08T13:04:23.868Z,18.97
2022-10-08T13:06:52.275Z,19.08
2022-10-08T13:09:31.092Z,19.14
2022-10-08T13:12:03.586Z,19.32
2022-10-08T13:14:36.177Z,19.12
2022-10-08T13:17:03.267Z,19.11
2022-10-08T13:19:38.415Z,18.92
2022-10-08T13:22:09.034Z,18.91
2022-10-08T13:24:40.917Z,18.79
2022-10-08T13:27:26.097Z,18.68
2022-10-08T13:29:54.041Z,18.60
2022-10-08T13:32:25.977Z,18.60
2022-10-08T13:34:56.147Z,18.75
2022-10-08T13:37:22.701Z,18.70
2022-10-08T13:40:11.376Z,18.71
2022-10-08T13:42:52.684Z,18.80
2022-10-08T13:45:20.157Z,18.96
2022-10-08T13:47:47.128Z,19.08
2022-10-08T13:50:14.532Z,19.27
2022-10-08T13:52:44.429Z,19.48
2022-10-08T13:55:41.169Z,19.79
2022-10-08T13:58:07.978Z,19.86
2022-10-08T14:00:36.820Z,20.15
2022-10-08T14:03:03.685Z,19.98
2022-10-08T14:05:31.063Z,20.02
2022-10-08T14:08:01.304Z,20.05
2022-10-08T14:10:28.212Z,19.92
2022-10-08T14:12:54.893Z,19.98
2022-10-08T14:15:21.808Z,19.78
2022-10-08T14:17:50.676Z,19.78
2022-10-08T14:20:17.447Z,19.85
2022-10-08T14:22:44.235Z,19.90
2022-10-08T14:25:22.931Z,19.97
2022-10-08T14:27:50.102Z,19.81
2022-10-08T14:30:17.534Z,19.99
2022-10-08T14:32:44.777Z,20.15
2022-10-08T14:35:12.332Z,20.24
2022-10-08T14:37:39.255Z,20.23
2022-10-08T14:40:07.457Z,20.23
2022-10-08T14:42:35.219Z,19.92
2022-10-08T14:45:01.944Z,19.47
2022-10-08T14:47:28.554Z,19.13
2022-10-08T14:49:55.152Z,18.95
2022-10-08T14:52:21.858Z,18.95
2022-10-08T14:54:48.521Z,18.77
2022-10-08T14:57:15.174Z,19.10
2022-10-08T14:59:45.093Z,18.98
2022-10-08T15:02:12.143Z,19.09
2022-10-08T15:04:39.030Z,19.12
2022-10-08T15:07:08.058Z,19.37
2022-10-08T15:09:37.198Z,19.67
2022-10-08T15:12:03.905Z,19.68
2022-10-08T15:14:34.361Z,19.57
2022-10-08T15:17:03.912Z,19.41
2022-10-08T15:19:30.521Z,19.12
2022-10-08T15:21:57.124Z,18.86
2022-10-08T15:24:23.820Z,18.77
2022-10-08T15:26:50.446Z,18.34
2022-10-08T15:29:17.209Z,18.31
2022-10-08T15:31:43.888Z,18.13
2022-10-08T15:34:17.966Z,17.80
2022-10-08T15:36:45.237Z,17.78
2022-10-08T15:39:16.978Z,17.52
2022-10-08T15:41:49.864Z,17.52
2022-10-08T15:44:27.011Z,17.00
2022-10-08T15:47:02.675Z,16.83
2022-10-08T15:49:40.414Z,16.80
2022-10-08T15:52:09.580Z,16.68
2022-10-08T15:54:40.028Z,16.77
2022-10-08T15:57:07.754Z,16.74
2022-10-08T15:59:34.438Z,16.64
2022-10-08T16:02:01.295Z,16.59
2022-10-08T16:04:28.125Z,16.58
2022-10-08T16:06:54.777Z,16.27
2022-10-08T16:09:22.997Z,16.13
2022-10-08T16:11:50.525Z,16.19
2022-10-08T16:14:19.778Z,16.03
2022-10-08T16:16:46.706Z,16.03
2022-10-08T16:19:16.484Z,15.89
2022-10-08T16:21:44.778Z,15.89
2022-10-08T16:24:11.846Z,15.73
2022-10-08T16:26:39.934Z,15.66
2022-10-08T16:29:08.894Z,15.63
2022-10-08T16:31:37.398Z,15.47
2022-10-08T16:34:12.849Z,15.38
2022-10-08T16:36:39.912Z,15.25
2022-10-08T16:39:08.013Z,15.19
2022-10-08T16:41:35.507Z,15.02
2022-10-08T16:44:13.777Z,14.97
2022-10-08T16:46:42.770Z,14.83
2022-10-08T16:49:29.129Z,14.64
2022-10-08T16:52:01.379Z,14.50
2022-10-08T16:54:28.535Z,14.35
2022-10-08T16:56:55.210Z,14.00
2022-10-08T16:59:24.559Z,14.09
2022-10-08T17:01:53.878Z,13.99
2022-10-08T17:04:21.961Z,13.87
2022-10-08T17:06:48.609Z,13.65
2022-10-08T17:09:17.652Z,13.48
2022-10-08T17:11:44.380Z,13.42
2022-10-08T17:14:11.843Z,13.33
2022-10-08T17:16:39.516Z,13.22
2022-10-08T17:19:06.524Z,13.09
2022-10-08T17:21:35.019Z,12.99
2022-10-08T17:24:02.865Z,12.87
2022-10-08T17:26:30.957Z,12.81
2022-10-08T17:28:58.105Z,12.66
2022-10-08T17:31:29.049Z,12.51
2022-10-08T17:33:55.754Z,12.40
2022-10-08T17:36:25.445Z,12.27
2022-10-08T17:38:53.962Z,12.00
2022-10-08T17:41:22.477Z,12.05
2022-10-08T17:43:50.345Z,12.06
2022-10-08T17:46:22.480Z,11.97
2022-10-08T17:48:49.483Z,11.84
2022-10-08T17:51:18.297Z,11.71
2022-10-08T17:53:45.416Z,11.71
2022-10-08T17:56:13.381Z,11.57
2022-10-08T17:58:40.353Z,11.56
2022-10-08T18:01:18.495Z,11.48
2022-10-08T18:03:52.803Z,11.42
2022-10-08T18:06:20.029Z,11.26
2022-10-08T18:08:46.926Z,11.10
2022-10-08T18:11:15.294Z,11.13
2022-10-08T18:13:42.117Z,11.03
2022-10-08T18:16:16.900Z,10.86
2022-10-08T18:18:44.436Z,10.75
2022-10-08T18:21:16.131Z,10.72
2022-10-08T18:23:43.331Z,10.63
2022-10-08T18:26:23.778Z,10.65
2022-10-08T18:28:52.340Z,10.57
2022-10-08T18:31:20.115Z,10.48
2022-10-08T18:33:49.858Z,10.43
2022-10-08T18:36:20.026Z,10.45
2022-10-08T18:38:48.667Z,10.39
2022-10-08T18:41:20.675Z,10.32
2022-10-08T18:43:49.435Z,10.28
2022-10-08T18:46:18.192Z,10.25
2022-10-08T18:48:44.928Z,10.18
2022-10-08T18:51:14.437Z,10.22
2022-10-08T18:53:42.589Z,10.14
2022-10-08T18:56:14.978Z,10.12
2022-10-08T18:58:41.642Z,10.06
2022-10-08T19:01:16.371Z,10.03
2022-10-08T19:03:50.272Z,10.03
2022-10-08T19:06:18.840Z,9.97
2022-10-08T19:08:45.775Z,9.89
2022-10-08T19:11:17.790Z,9.79
2022-10-08T19:13:44.777Z,9.57
2022-10-08T19:16:15.529Z,9.58
2022-10-08T19:18:56.761Z,9.40
2022-10-08T19:21:25.190Z,9.36
2022-10-08T19:23:52.871Z,9.37
2022-10-08T19:26:19.682Z,9.35
2022-10-08T19:28:51.193Z,9.36
2022-10-08T19:31:23.104Z,9.30
2022-10-08T19:33:54.888Z,9.29
2022-10-08T19:36:22.813Z,9.34
2022-10-08T19:39:00.517Z,9.22
2022-10-08T19:41:28.416Z,9.22
2022-10-08T19:43:56.320Z,9.23
2022-10-08T19:46:23.689Z,9.19
2022-10-08T19:48:51.841Z,9.16
2022-10-08T19:51:19.427Z,9.11
2022-10-08T19:53:46.172Z,8.96
2022-10-08T19:56:13.506Z,9.00
2022-10-08T19:58:44.999Z,9.02
2022-10-08T20:01:19.227Z,8.94
2022-10-08T20:03:46.050Z,8.99
2022-10-08T20:06:17.473Z,8.96
2022-10-08T20:08:47.161Z,8.83
2022-10-08T20:11:16.477Z,8.80
2022-10-08T20:13:44.644Z,8.76
2022-10-08T20:16:19.444Z,8.71
2022-10-08T20:18:56.720Z,8.65
2022-10-08T20:21:25.548Z,8.59
2022-10-08T20:23:52.187Z,8.36
2022-10-08T20:26:23.771Z,8.30
2022-10-08T20:28:52.643Z,8.35
2022-10-08T20:31:25.196Z,8.27
2022-10-08T20:34:00.084Z,8.25
2022-10-08T20:36:27.254Z,8.23
2022-10-08T20:38:54.107Z,8.17
2022-10-08T20:41:23.569Z,8.28
2022-10-08T20:43:56.109Z,8.24
2022-10-08T20:46:23.019Z,8.20
2022-10-08T20:48:49.709Z,8.24
2022-10-08T20:51:19.075Z,8.15
2022-10-08T20:53:47.168Z,7.99
2022-10-08T20:56:14.010Z,7.82
2022-10-08T20:58:40.856Z,7.76
2022-10-08T21:01:10.144Z,7.84
2022-10-08T21:03:39.294Z,7.68
2022-10-08T21:06:07.493Z,7.70
2022-10-08T21:08:38.121Z,7.76
2022-10-08T21:11:06.637Z,7.69
2022-10-08T21:13:34.173Z,7.83
2022-10-08T21:16:07.008Z,7.85
2022-10-08T21:18:34.913Z,7.70
2022-10-08T21:21:06.700Z,7.71
2022-10-08T21:23:33.798Z,7.61
2022-10-08T21:26:12.316Z,7.47
2022-10-08T21:28:39.450Z,7.50
2022-10-08T21:31:07.625Z,7.34
2022-10-08T21:33:38.728Z,7.29
2022-10-08T21:36:07.670Z,7.20
2022-10-08T21:38:34.311Z,7.07
2022-10-08T21:41:03.481Z,7.05
2022-10-08T21:43:31.077Z,6.96
2022-10-08T21:45:59.305Z,6.96
2022-10-08T21:48:27.177Z,6.88
2022-10-08T21:51:01.853Z,6.95
2022-10-08T21:53:29.919Z,6.93
2022-10-08T21:55:58.658Z,6.97
2022-10-08T21:58:26.365Z,7.08
2022-10-08T22:00:53.577Z,6.90
2022-10-08T22:03:21.237Z,6.90
2022-10-08T22:05:56.858Z,6.88
2022-10-08T22:08:24.941Z,6.80
2022-10-08T22:10:52.126Z,6.72
2022-10-08T22:13:19.061Z,6.71
2022-10-08T22:15:56.266Z,6.70
2022-10-08T22:18:24.326Z,6.65
2022-10-08T22:20:51.241Z,6.46
2022-10-08T22:23:18.331Z,6.50
2022-10-08T22:26:02.824Z,6.53
2022-10-08T22:28:30.034Z,6.44
2022-10-08T22:31:02.086Z,6.44
2022-10-08T22:33:29.544Z,6.36
2022-10-08T22:36:13.837Z,6.32
2022-10-08T22:38:41.893Z,6.38
2022-10-08T22:41:14.305Z,6.51
2022-10-08T22:43:41.547Z,6.45
2022-10-08T22:46:17.921Z,6.56
2022-10-08T22:48:45.189Z,6.54
2022-10-08T22:51:17.448Z,6.40
2022-10-08T22:53:44.505Z,6.46
2022-10-08T22:56:13.745Z,6.33
2022-10-08T22:58:43.278Z,6.45
2022-10-08T23:01:12.604Z,6.44
2022-10-08T23:03:39.799Z,6.35
2022-10-08T23:06:12.481Z,6.28
2022-10-08T23:08:39.333Z,6.21
2022-10-08T23:11:06.300Z,6.17
2022-10-08T23:13:33.216Z,6.34
2022-10-08T23:16:07.339Z,6.26
2022-10-08T23:18:36.634Z,6.28
2022-10-08T23:21:07.871Z,6.15
2022-10-08T23:23:35.812Z,6.12
2022-10-08T23:26:04.236Z,6.17
2022-10-08T23:28:32.181Z,6.26
2022-10-08T23:31:10.186Z,6.23
2022-10-08T23:33:38.350Z,6.16
2022-10-08T23:36:10.176Z,6.20
2022-10-08T23:38:37.122Z,6.26
2022-10-08T23:41:05.519Z,6.24
2022-10-08T23:43:43.601Z,6.32
2022-10-08T23:46:12.835Z,6.33
2022-10-08T23:48:40.130Z,6.23
2022-10-08T23:51:08.613Z,6.20
2022-10-08T23:53:35.440Z,6.18
2022-10-08T23:56:02.411Z,6.17
2022-10-08T23:58:29.367Z,6.04
